LFBY/XDA METAR and TAF weather

Enter ICAO airport designator
Station Type Date Time Source
LFBY METAR 2020/06/05 13:00 UTC NOAA

LFBY 051300Z AUTO 26011KT 210V300 9999 // ////// 18/14 Q1013


Station Type Date Time Source
LFBY Decoded METAR 2020/06/05 13:00 UTC NOAA

Dax, France (LFBY) 43-41N 001-04W 32M
Jun 05, 2020 - 09:00 AM EDT / 2020.06.05 1300 UTC
Wind: from the W (260 degrees) at 13 MPH (11 KT) (direction variable):0
Visibility: greater than 7 mile(s):0
Temperature: 64 F (18 C)
Dew Point: 57 F (14 C)
Relative Humidity: 77%
Pressure (altimeter): 29.91 in. Hg (1013 hPa)
ob: LFBY 051300Z AUTO 26011KT 210V300 9999 // ////// 18/14 Q1013
cycle: 13

Station Type Date Time Source
LFBY TAF UTC NOAA

Error!

Example: see airport list